sensor_id;sensor_type;location;lat;lon;timestamp;temperature;humidity
74511;DHT22;62991;50.040;18.400;2022-12-08T00:00:00;3.80;63.90
74511;DHT22;62991;50.040;18.400;2022-12-08T00:03:01;3.80;64.00
74511;DHT22;62991;50.040;18.400;2022-12-08T00:06:03;3.80;64.00
74511;DHT22;62991;50.040;18.400;2022-12-08T00:12:29;3.80;64.10
74511;DHT22;62991;50.040;18.400;2022-12-08T00:15:30;3.70;64.20
74511;DHT22;62991;50.040;18.400;2022-12-08T00:18:30;3.70;64.30
74511;DHT22;62991;50.040;18.400;2022-12-08T00:21:31;3.70;64.40
74511;DHT22;62991;50.040;18.400;2022-12-08T00:24:34;3.70;64.40
74511;DHT22;62991;50.040;18.400;2022-12-08T00:27:34;3.70;64.50
74511;DHT22;62991;50.040;18.400;2022-12-08T00:30:38;3.70;64.50
74511;DHT22;62991;50.040;18.400;2022-12-08T00:33:39;3.70;64.50
74511;DHT22;62991;50.040;18.400;2022-12-08T00:36:40;3.70;64.50
74511;DHT22;62991;50.040;18.400;2022-12-08T00:39:41;3.80;64.50
74511;DHT22;62991;50.040;18.400;2022-12-08T00:42:42;3.80;64.50
74511;DHT22;62991;50.040;18.400;2022-12-08T00:45:42;3.80;64.50
74511;DHT22;62991;50.040;18.400;2022-12-08T00:48:43;3.80;64.50
74511;DHT22;62991;50.040;18.400;2022-12-08T00:51:44;3.80;64.50
74511;DHT22;62991;50.040;18.400;2022-12-08T00:54:44;3.80;64.50
74511;DHT22;62991;50.040;18.400;2022-12-08T00:57:45;3.70;64.60
74511;DHT22;62991;50.040;18.400;2022-12-08T01:00:45;3.80;64.60
74511;DHT22;62991;50.040;18.400;2022-12-08T01:03:46;3.70;64.70
74511;DHT22;62991;50.040;18.400;2022-12-08T01:06:48;3.70;64.70
74511;DHT22;62991;50.040;18.400;2022-12-08T01:09:48;3.70;64.70
74511;DHT22;62991;50.040;18.400;2022-12-08T01:12:49;3.70;64.80
74511;DHT22;62991;50.040;18.400;2022-12-08T01:15:50;3.70;64.80
74511;DHT22;62991;50.040;18.400;2022-12-08T01:18:50;3.70;64.80
74511;DHT22;62991;50.040;18.400;2022-12-08T01:21:51;3.70;64.80
74511;DHT22;62991;50.040;18.400;2022-12-08T01:24:52;3.70;64.80
74511;DHT22;62991;50.040;18.400;2022-12-08T01:27:52;3.70;64.90
74511;DHT22;62991;50.040;18.400;2022-12-08T01:30:53;3.70;64.90
74511;DHT22;62991;50.040;18.400;2022-12-08T01:33:54;3.70;64.90
74511;DHT22;62991;50.040;18.400;2022-12-08T01:36:54;3.70;64.90
74511;DHT22;62991;50.040;18.400;2022-12-08T01:39:55;3.70;64.90
74511;DHT22;62991;50.040;18.400;2022-12-08T01:42:56;3.70;64.90
74511;DHT22;62991;50.040;18.400;2022-12-08T01:45:56;3.70;64.90
74511;DHT22;62991;50.040;18.400;2022-12-08T01:49:08;3.70;64.90
74511;DHT22;62991;50.040;18.400;2022-12-08T01:52:15;3.60;65.00
74511;DHT22;62991;50.040;18.400;2022-12-08T01:55:29;3.70;65.00
74511;DHT22;62991;50.040;18.400;2022-12-08T01:58:42;3.60;65.00
74511;DHT22;62991;50.040;18.400;2022-12-08T02:01:44;3.60;65.00
74511;DHT22;62991;50.040;18.400;2022-12-08T02:04:45;3.60;65.00
74511;DHT22;62991;50.040;18.400;2022-12-08T02:07:46;3.60;65.00
74511;DHT22;62991;50.040;18.400;2022-12-08T02:10:49;3.60;65.00
74511;DHT22;62991;50.040;18.400;2022-12-08T02:13:52;3.60;65.10
74511;DHT22;62991;50.040;18.400;2022-12-08T02:17:23;3.60;65.10
74511;DHT22;62991;50.040;18.400;2022-12-08T02:20:59;3.60;65.20
74511;DHT22;62991;50.040;18.400;2022-12-08T02:44:08;3.60;65.10
74511;DHT22;62991;50.040;18.400;2022-12-08T02:47:17;3.60;65.00
74511;DHT22;62991;50.040;18.400;2022-12-08T02:50:18;3.60;65.00
74511;DHT22;62991;50.040;18.400;2022-12-08T02:53:19;3.60;65.00
74511;DHT22;62991;50.040;18.400;2022-12-08T03:10:02;3.50;65.20
74511;DHT22;62991;50.040;18.400;2022-12-08T03:13:08;3.50;65.20
74511;DHT22;62991;50.040;18.400;2022-12-08T03:16:14;3.40;65.20
74511;DHT22;62991;50.040;18.400;2022-12-08T03:19:18;3.50;65.30
74511;DHT22;62991;50.040;18.400;2022-12-08T03:22:23;3.40;65.30
74511;DHT22;62991;50.040;18.400;2022-12-08T03:25:26;3.50;65.40
74511;DHT22;62991;50.040;18.400;2022-12-08T03:28:30;3.50;65.30
74511;DHT22;62991;50.040;18.400;2022-12-08T03:31:34;3.50;65.30
74511;DHT22;62991;50.040;18.400;2022-12-08T03:34:40;3.50;65.30
74511;DHT22;62991;50.040;18.400;2022-12-08T03:37:41;3.50;65.20
74511;DHT22;62991;50.040;18.400;2022-12-08T03:40:43;3.60;65.20
74511;DHT22;62991;50.040;18.400;2022-12-08T03:43:48;3.50;65.20
74511;DHT22;62991;50.040;18.400;2022-12-08T03:46:49;3.50;65.20
74511;DHT22;62991;50.040;18.400;2022-12-08T03:49:49;3.50;65.30
74511;DHT22;62991;50.040;18.400;2022-12-08T03:52:50;3.50;65.30
74511;DHT22;62991;50.040;18.400;2022-12-08T03:55:52;3.60;65.30
74511;DHT22;62991;50.040;18.400;2022-12-08T03:58:54;3.60;65.30
74511;DHT22;62991;50.040;18.400;2022-12-08T04:01:55;3.60;65.30
74511;DHT22;62991;50.040;18.400;2022-12-08T04:04:55;3.60;65.20
74511;DHT22;62991;50.040;18.400;2022-12-08T04:07:56;3.60;65.30
74511;DHT22;62991;50.040;18.400;2022-12-08T04:10:57;3.60;65.30
74511;DHT22;62991;50.040;18.400;2022-12-08T04:13:58;3.60;65.30
74511;DHT22;62991;50.040;18.400;2022-12-08T04:16:59;3.60;65.30
74511;DHT22;62991;50.040;18.400;2022-12-08T04:19:59;3.60;65.30
74511;DHT22;62991;50.040;18.400;2022-12-08T04:23:00;3.70;65.30
74511;DHT22;62991;50.040;18.400;2022-12-08T04:26:01;3.70;65.20
74511;DHT22;62991;50.040;18.400;2022-12-08T04:29:01;3.80;65.10
74511;DHT22;62991;50.040;18.400;2022-12-08T04:32:02;3.80;65.10
74511;DHT22;62991;50.040;18.400;2022-12-08T04:35:03;3.80;65.00
74511;DHT22;62991;50.040;18.400;2022-12-08T04:38:04;3.90;64.90
74511;DHT22;62991;50.040;18.400;2022-12-08T04:41:04;3.90;64.90
74511;DHT22;62991;50.040;18.400;2022-12-08T04:44:05;3.90;64.80
74511;DHT22;62991;50.040;18.400;2022-12-08T04:47:06;3.90;64.80
74511;DHT22;62991;50.040;18.400;2022-12-08T04:50:07;3.90;64.70
74511;DHT22;62991;50.040;18.400;2022-12-08T04:53:08;3.90;64.70
74511;DHT22;62991;50.040;18.400;2022-12-08T04:56:17;3.90;64.80
74511;DHT22;62991;50.040;18.400;2022-12-08T04:59:18;4.00;64.80
74511;DHT22;62991;50.040;18.400;2022-12-08T05:02:19;4.00;64.70
74511;DHT22;62991;50.040;18.400;2022-12-08T05:05:20;4.00;64.70
74511;DHT22;62991;50.040;18.400;2022-12-08T05:08:20;4.00;64.70
74511;DHT22;62991;50.040;18.400;2022-12-08T05:11:21;3.90;64.70
74511;DHT22;62991;50.040;18.400;2022-12-08T05:14:22;3.90;64.70
74511;DHT22;62991;50.040;18.400;2022-12-08T05:17:22;3.90;64.80
74511;DHT22;62991;50.040;18.400;2022-12-08T05:20:23;3.90;64.80
74511;DHT22;62991;50.040;18.400;2022-12-08T05:23:24;3.90;64.80
74511;DHT22;62991;50.040;18.400;2022-12-08T05:26:25;3.90;64.80
74511;DHT22;62991;50.040;18.400;2022-12-08T05:29:25;3.90;64.80
74511;DHT22;62991;50.040;18.400;2022-12-08T05:32:26;3.90;64.80
74511;DHT22;62991;50.040;18.400;2022-12-08T05:35:27;3.90;64.70
74511;DHT22;62991;50.040;18.400;2022-12-08T05:38:27;3.80;64.80
74511;DHT22;62991;50.040;18.400;2022-12-08T05:41:28;3.80;64.80
74511;DHT22;62991;50.040;18.400;2022-12-08T05:44:29;3.80;64.80
74511;DHT22;62991;50.040;18.400;2022-12-08T05:47:30;3.80;64.80
74511;DHT22;62991;50.040;18.400;2022-12-08T05:50:30;3.80;64.90
74511;DHT22;62991;50.040;18.400;2022-12-08T05:53:31;3.80;64.90
74511;DHT22;62991;50.040;18.400;2022-12-08T05:56:32;3.80;64.90
74511;DHT22;62991;50.040;18.400;2022-12-08T05:59:33;3.80;64.90
74511;DHT22;62991;50.040;18.400;2022-12-08T06:02:33;3.70;65.00
74511;DHT22;62991;50.040;18.400;2022-12-08T06:05:35;3.70;65.00
74511;DHT22;62991;50.040;18.400;2022-12-08T06:08:35;3.70;64.90
74511;DHT22;62991;50.040;18.400;2022-12-08T06:11:36;3.70;64.90
74511;DHT22;62991;50.040;18.400;2022-12-08T06:14:38;3.70;64.90
74511;DHT22;62991;50.040;18.400;2022-12-08T06:17:39;3.70;65.00
74511;DHT22;62991;50.040;18.400;2022-12-08T06:20:40;3.70;64.90
74511;DHT22;62991;50.040;18.400;2022-12-08T06:23:41;3.70;65.00
74511;DHT22;62991;50.040;18.400;2022-12-08T06:26:42;3.70;64.90
74511;DHT22;62991;50.040;18.400;2022-12-08T06:29:43;3.80;64.90
74511;DHT22;62991;50.040;18.400;2022-12-08T06:32:43;3.80;64.90
74511;DHT22;62991;50.040;18.400;2022-12-08T06:35:44;3.80;64.80
74511;DHT22;62991;50.040;18.400;2022-12-08T06:38:45;3.80;64.70
74511;DHT22;62991;50.040;18.400;2022-12-08T06:41:45;3.90;64.70
74511;DHT22;62991;50.040;18.400;2022-12-08T06:45:05;3.80;64.70
74511;DHT22;62991;50.040;18.400;2022-12-08T06:48:06;3.90;64.70
74511;DHT22;62991;50.040;18.400;2022-12-08T06:51:10;3.90;64.70
74511;DHT22;62991;50.040;18.400;2022-12-08T06:54:11;3.90;64.60
74511;DHT22;62991;50.040;18.400;2022-12-08T06:57:12;3.90;64.60
74511;DHT22;62991;50.040;18.400;2022-12-08T07:00:13;3.90;64.50
74511;DHT22;62991;50.040;18.400;2022-12-08T07:03:14;3.90;64.50
74511;DHT22;62991;50.040;18.400;2022-12-08T07:06:18;4.00;64.50
74511;DHT22;62991;50.040;18.400;2022-12-08T07:09:19;4.00;64.50
74511;DHT22;62991;50.040;18.400;2022-12-08T07:12:20;4.10;64.40
74511;DHT22;62991;50.040;18.400;2022-12-08T07:15:21;4.10;64.40
74511;DHT22;62991;50.040;18.400;2022-12-08T07:18:21;4.20;64.30
74511;DHT22;62991;50.040;18.400;2022-12-08T07:21:22;4.20;64.20
74511;DHT22;62991;50.040;18.400;2022-12-08T07:24:23;4.20;64.20
74511;DHT22;62991;50.040;18.400;2022-12-08T07:27:23;4.20;64.20
74511;DHT22;62991;50.040;18.400;2022-12-08T07:30:24;4.30;64.20
74511;DHT22;62991;50.040;18.400;2022-12-08T07:33:26;4.30;64.10
74511;DHT22;62991;50.040;18.400;2022-12-08T07:36:26;4.30;64.20
74511;DHT22;62991;50.040;18.400;2022-12-08T07:39:27;4.40;64.00
74511;DHT22;62991;50.040;18.400;2022-12-08T07:42:28;4.30;64.00
74511;DHT22;62991;50.040;18.400;2022-12-08T07:45:28;4.40;64.00
74511;DHT22;62991;50.040;18.400;2022-12-08T07:48:29;4.40;64.00
74511;DHT22;62991;50.040;18.400;2022-12-08T07:51:30;4.40;64.00
74511;DHT22;62991;50.040;18.400;2022-12-08T07:54:30;4.50;63.90
74511;DHT22;62991;50.040;18.400;2022-12-08T07:57:31;4.50;64.00
74511;DHT22;62991;50.040;18.400;2022-12-08T08:00:32;4.60;63.90
74511;DHT22;62991;50.040;18.400;2022-12-08T08:03:32;4.60;63.70
74511;DHT22;62991;50.040;18.400;2022-12-08T08:06:34;4.60;63.70
74511;DHT22;62991;50.040;18.400;2022-12-08T08:09:36;4.60;63.60
74511;DHT22;62991;50.040;18.400;2022-12-08T08:12:37;4.70;63.60
74511;DHT22;62991;50.040;18.400;2022-12-08T08:15:38;4.70;63.50
74511;DHT22;62991;50.040;18.400;2022-12-08T08:18:40;4.70;63.30
74511;DHT22;62991;50.040;18.400;2022-12-08T08:21:40;4.70;63.30
74511;DHT22;62991;50.040;18.400;2022-12-08T08:24:41;4.70;63.20
74511;DHT22;62991;50.040;18.400;2022-12-08T08:27:42;4.70;63.30
74511;DHT22;62991;50.040;18.400;2022-12-08T08:30:45;4.70;63.30
74511;DHT22;62991;50.040;18.400;2022-12-08T08:33:46;4.70;63.30
74511;DHT22;62991;50.040;18.400;2022-12-08T08:36:48;4.70;63.20
74511;DHT22;62991;50.040;18.400;2022-12-08T08:39:49;4.70;63.10
74511;DHT22;62991;50.040;18.400;2022-12-08T08:42:50;4.70;63.10
74511;DHT22;62991;50.040;18.400;2022-12-08T08:45:50;4.70;63.00
74511;DHT22;62991;50.040;18.400;2022-12-08T08:48:51;4.70;63.10
74511;DHT22;62991;50.040;18.400;2022-12-08T08:51:52;4.70;63.10
74511;DHT22;62991;50.040;18.400;2022-12-08T08:54:52;4.80;63.00
74511;DHT22;62991;50.040;18.400;2022-12-08T08:57:53;4.80;63.00
74511;DHT22;62991;50.040;18.400;2022-12-08T09:00:54;4.80;63.00
74511;DHT22;62991;50.040;18.400;2022-12-08T09:03:54;4.80;62.90
74511;DHT22;62991;50.040;18.400;2022-12-08T09:06:55;4.90;62.80
74511;DHT22;62991;50.040;18.400;2022-12-08T09:09:56;4.90;62.70
74511;DHT22;62991;50.040;18.400;2022-12-08T09:12:57;4.90;62.60
74511;DHT22;62991;50.040;18.400;2022-12-08T09:16:03;4.90;62.70
74511;DHT22;62991;50.040;18.400;2022-12-08T09:19:04;5.00;62.70
74511;DHT22;62991;50.040;18.400;2022-12-08T09:22:05;5.00;62.50
74511;DHT22;62991;50.040;18.400;2022-12-08T09:25:06;5.00;62.50
74511;DHT22;62991;50.040;18.400;2022-12-08T09:28:06;4.90;62.50
74511;DHT22;62991;50.040;18.400;2022-12-08T09:31:07;4.90;62.60
74511;DHT22;62991;50.040;18.400;2022-12-08T09:34:09;5.00;62.60
74511;DHT22;62991;50.040;18.400;2022-12-08T09:37:10;4.90;62.50
74511;DHT22;62991;50.040;18.400;2022-12-08T09:40:16;5.00;62.50
74511;DHT22;62991;50.040;18.400;2022-12-08T09:46:27;5.00;62.50
74511;DHT22;62991;50.040;18.400;2022-12-08T09:49:41;5.00;62.40
74511;DHT22;62991;50.040;18.400;2022-12-08T09:52:56;5.10;62.50
74511;DHT22;62991;50.040;18.400;2022-12-08T09:56:03;5.10;62.30
74511;DHT22;62991;50.040;18.400;2022-12-08T09:59:28;5.10;62.30
74511;DHT22;62991;50.040;18.400;2022-12-08T10:02:29;5.10;62.30
74511;DHT22;62991;50.040;18.400;2022-12-08T10:05:33;5.20;62.30
74511;DHT22;62991;50.040;18.400;2022-12-08T10:08:45;5.20;62.20
74511;DHT22;62991;50.040;18.400;2022-12-08T10:11:56;5.20;62.10
74511;DHT22;62991;50.040;18.400;2022-12-08T10:18:28;5.20;61.90
74511;DHT22;62991;50.040;18.400;2022-12-08T10:21:30;5.20;62.00
74511;DHT22;62991;50.040;18.400;2022-12-08T10:24:40;5.20;62.00
74511;DHT22;62991;50.040;18.400;2022-12-08T10:27:46;5.20;62.00
74511;DHT22;62991;50.040;18.400;2022-12-08T10:30:48;5.20;62.10
74511;DHT22;62991;50.040;18.400;2022-12-08T10:37:15;5.30;61.90
74511;DHT22;62991;50.040;18.400;2022-12-08T10:40:16;5.30;61.90
74511;DHT22;62991;50.040;18.400;2022-12-08T10:43:25;5.20;61.90
74511;DHT22;62991;50.040;18.400;2022-12-08T10:46:27;5.30;61.90
74511;DHT22;62991;50.040;18.400;2022-12-08T10:49:29;5.20;61.80
74511;DHT22;62991;50.040;18.400;2022-12-08T10:52:37;5.20;61.80
74511;DHT22;62991;50.040;18.400;2022-12-08T10:55:43;5.20;61.80
74511;DHT22;62991;50.040;18.400;2022-12-08T10:58:46;5.20;61.80
74511;DHT22;62991;50.040;18.400;2022-12-08T11:01:48;5.20;61.80
74511;DHT22;62991;50.040;18.400;2022-12-08T11:04:57;5.10;61.80
74511;DHT22;62991;50.040;18.400;2022-12-08T11:08:02;5.10;61.90
74511;DHT22;62991;50.040;18.400;2022-12-08T11:11:04;5.10;61.90
74511;DHT22;62991;50.040;18.400;2022-12-08T11:14:08;5.10;61.90
74511;DHT22;62991;50.040;18.400;2022-12-08T11:20:22;5.00;61.90
74511;DHT22;62991;50.040;18.400;2022-12-08T11:23:24;4.90;62.20
74511;DHT22;62991;50.040;18.400;2022-12-08T11:26:30;4.80;62.30
74511;DHT22;62991;50.040;18.400;2022-12-08T11:29:33;4.70;62.40
74511;DHT22;62991;50.040;18.400;2022-12-08T11:32:35;4.70;62.60
74511;DHT22;62991;50.040;18.400;2022-12-08T11:35:39;4.70;62.70
74511;DHT22;62991;50.040;18.400;2022-12-08T11:38:44;4.60;62.80
74511;DHT22;62991;50.040;18.400;2022-12-08T11:41:46;4.50;63.00
74511;DHT22;62991;50.040;18.400;2022-12-08T11:44:56;4.50;63.20
74511;DHT22;62991;50.040;18.400;2022-12-08T11:48:40;4.50;63.30
74511;DHT22;62991;50.040;18.400;2022-12-08T11:51:54;4.40;63.40
74511;DHT22;62991;50.040;18.400;2022-12-08T12:01:52;4.50;63.40
74511;DHT22;62991;50.040;18.400;2022-12-08T12:08:40;4.40;63.50
74511;DHT22;62991;50.040;18.400;2022-12-08T12:12:04;4.40;63.50
74511;DHT22;62991;50.040;18.400;2022-12-08T12:18:57;4.40;63.70
74511;DHT22;62991;50.040;18.400;2022-12-08T12:22:11;4.30;63.70
74511;DHT22;62991;50.040;18.400;2022-12-08T12:25:18;4.30;63.80
74511;DHT22;62991;50.040;18.400;2022-12-08T12:28:22;4.40;63.80
74511;DHT22;62991;50.040;18.400;2022-12-08T12:31:35;4.40;63.80
74511;DHT22;62991;50.040;18.400;2022-12-08T12:34:54;4.40;63.80
74511;DHT22;62991;50.040;18.400;2022-12-08T12:38:00;4.40;63.80
74511;DHT22;62991;50.040;18.400;2022-12-08T12:41:03;4.50;63.80
74511;DHT22;62991;50.040;18.400;2022-12-08T12:50:50;4.50;64.00
74511;DHT22;62991;50.040;18.400;2022-12-08T12:53:51;4.50;63.90
74511;DHT22;62991;50.040;18.400;2022-12-08T12:57:23;4.50;64.00
74511;DHT22;62991;50.040;18.400;2022-12-08T13:00:26;4.60;64.00
74511;DHT22;62991;50.040;18.400;2022-12-08T13:03:27;4.60;64.00
74511;DHT22;62991;50.040;18.400;2022-12-08T13:06:47;4.60;64.00
74511;DHT22;62991;50.040;18.400;2022-12-08T13:09:55;4.60;64.00
74511;DHT22;62991;50.040;18.400;2022-12-08T13:13:26;4.60;64.10
74511;DHT22;62991;50.040;18.400;2022-12-08T13:16:32;4.60;64.10
74511;DHT22;62991;50.040;18.400;2022-12-08T13:19:35;4.70;64.10
74511;DHT22;62991;50.040;18.400;2022-12-08T13:23:01;4.70;64.10
74511;DHT22;62991;50.040;18.400;2022-12-08T13:26:11;4.80;64.10
74511;DHT22;62991;50.040;18.400;2022-12-08T13:29:20;4.80;64.10
74511;DHT22;62991;50.040;18.400;2022-12-08T13:32:56;4.80;64.00
74511;DHT22;62991;50.040;18.400;2022-12-08T13:36:13;4.90;64.00
74511;DHT22;62991;50.040;18.400;2022-12-08T13:46:06;4.90;64.10
74511;DHT22;62991;50.040;18.400;2022-12-08T13:49:14;4.90;64.10
74511;DHT22;62991;50.040;18.400;2022-12-08T13:55:59;4.90;64.20
74511;DHT22;62991;50.040;18.400;2022-12-08T13:59:29;4.80;64.20
74511;DHT22;62991;50.040;18.400;2022-12-08T14:02:40;4.80;64.30
74511;DHT22;62991;50.040;18.400;2022-12-08T14:05:43;4.90;64.30
74511;DHT22;62991;50.040;18.400;2022-12-08T14:08:53;4.80;64.40
74511;DHT22;62991;50.040;18.400;2022-12-08T14:15:04;4.90;64.40
74511;DHT22;62991;50.040;18.400;2022-12-08T14:18:24;4.90;64.40
74511;DHT22;62991;50.040;18.400;2022-12-08T14:21:28;4.90;64.40
74511;DHT22;62991;50.040;18.400;2022-12-08T14:24:30;4.90;64.40
74511;DHT22;62991;50.040;18.400;2022-12-08T14:27:37;5.00;64.40
74511;DHT22;62991;50.040;18.400;2022-12-08T14:30:38;5.00;64.40
74511;DHT22;62991;50.040;18.400;2022-12-08T14:33:39;5.00;64.40
74511;DHT22;62991;50.040;18.400;2022-12-08T14:36:40;5.10;64.30
74511;DHT22;62991;50.040;18.400;2022-12-08T14:39:41;5.10;64.40
74511;DHT22;62991;50.040;18.400;2022-12-08T14:42:47;5.20;64.40
74511;DHT22;62991;50.040;18.400;2022-12-08T14:45:50;5.20;64.40
74511;DHT22;62991;50.040;18.400;2022-12-08T14:48:53;5.30;64.30
74511;DHT22;62991;50.040;18.400;2022-12-08T14:51:56;5.30;64.30
74511;DHT22;62991;50.040;18.400;2022-12-08T14:54:57;5.40;64.30
74511;DHT22;62991;50.040;18.400;2022-12-08T14:57:58;5.40;64.20
74511;DHT22;62991;50.040;18.400;2022-12-08T15:00:59;5.50;64.20
74511;DHT22;62991;50.040;18.400;2022-12-08T15:04:24;5.50;64.10
74511;DHT22;62991;50.040;18.400;2022-12-08T15:07:50;5.60;64.10
74511;DHT22;62991;50.040;18.400;2022-12-08T15:11:11;5.70;64.00
74511;DHT22;62991;50.040;18.400;2022-12-08T15:14:32;5.70;64.00
74511;DHT22;62991;50.040;18.400;2022-12-08T15:17:41;5.70;64.00
74511;DHT22;62991;50.040;18.400;2022-12-08T15:20:46;5.80;63.90
74511;DHT22;62991;50.040;18.400;2022-12-08T15:23:49;5.80;63.90
74511;DHT22;62991;50.040;18.400;2022-12-08T15:26:51;5.90;63.90
74511;DHT22;62991;50.040;18.400;2022-12-08T15:29:52;5.90;63.90
74511;DHT22;62991;50.040;18.400;2022-12-08T15:32:53;5.90;63.80
74511;DHT22;62991;50.040;18.400;2022-12-08T15:35:55;5.90;63.80
74511;DHT22;62991;50.040;18.400;2022-12-08T15:38:56;5.90;63.80
74511;DHT22;62991;50.040;18.400;2022-12-08T15:41:57;6.00;63.70
74511;DHT22;62991;50.040;18.400;2022-12-08T15:44:57;6.00;63.70
74511;DHT22;62991;50.040;18.400;2022-12-08T15:47:58;5.90;63.70
74511;DHT22;62991;50.040;18.400;2022-12-08T15:51:00;5.90;63.70
74511;DHT22;62991;50.040;18.400;2022-12-08T15:54:00;5.90;63.80
74511;DHT22;62991;50.040;18.400;2022-12-08T15:57:01;6.00;63.80
74511;DHT22;62991;50.040;18.400;2022-12-08T16:00:02;5.90;63.70
74511;DHT22;62991;50.040;18.400;2022-12-08T16:03:03;5.90;63.80
74511;DHT22;62991;50.040;18.400;2022-12-08T16:06:05;5.90;63.90
74511;DHT22;62991;50.040;18.400;2022-12-08T16:09:29;5.90;63.90
74511;DHT22;62991;50.040;18.400;2022-12-08T16:12:30;6.00;63.90
74511;DHT22;62991;50.040;18.400;2022-12-08T16:15:50;6.00;63.80
74511;DHT22;62991;50.040;18.400;2022-12-08T16:18:50;6.00;63.70
74511;DHT22;62991;50.040;18.400;2022-12-08T16:21:51;6.00;63.60
74511;DHT22;62991;50.040;18.400;2022-12-08T16:24:52;6.00;63.70
74511;DHT22;62991;50.040;18.400;2022-12-08T16:27:54;6.00;63.70
74511;DHT22;62991;50.040;18.400;2022-12-08T16:30:55;6.00;63.70
74511;DHT22;62991;50.040;18.400;2022-12-08T16:33:56;6.00;63.70
74511;DHT22;62991;50.040;18.400;2022-12-08T16:36:56;6.00;63.70
74511;DHT22;62991;50.040;18.400;2022-12-08T16:39:58;5.90;63.70
74511;DHT22;62991;50.040;18.400;2022-12-08T16:42:59;5.90;63.70
74511;DHT22;62991;50.040;18.400;2022-12-08T16:46:00;5.90;63.70
74511;DHT22;62991;50.040;18.400;2022-12-08T16:49:02;5.80;63.80
74511;DHT22;62991;50.040;18.400;2022-12-08T16:52:02;5.70;63.80
74511;DHT22;62991;50.040;18.400;2022-12-08T16:55:11;5.60;64.00
74511;DHT22;62991;50.040;18.400;2022-12-08T16:58:13;5.50;64.20
74511;DHT22;62991;50.040;18.400;2022-12-08T17:01:16;5.50;64.20
74511;DHT22;62991;50.040;18.400;2022-12-08T17:04:16;5.40;64.20
74511;DHT22;62991;50.040;18.400;2022-12-08T17:07:17;5.40;64.30
74511;DHT22;62991;50.040;18.400;2022-12-08T17:10:20;5.30;64.50
74511;DHT22;62991;50.040;18.400;2022-12-08T17:13:22;5.30;64.50
74511;DHT22;62991;50.040;18.400;2022-12-08T17:16:23;5.20;64.60
74511;DHT22;62991;50.040;18.400;2022-12-08T17:19:23;5.20;64.60
74511;DHT22;62991;50.040;18.400;2022-12-08T17:22:24;5.10;64.70
74511;DHT22;62991;50.040;18.400;2022-12-08T17:25:25;5.10;64.70
74511;DHT22;62991;50.040;18.400;2022-12-08T17:28:27;5.00;64.80
74511;DHT22;62991;50.040;18.400;2022-12-08T17:31:28;5.00;64.80
74511;DHT22;62991;50.040;18.400;2022-12-08T17:34:29;5.00;64.90
74511;DHT22;62991;50.040;18.400;2022-12-08T17:37:30;5.00;64.90
74511;DHT22;62991;50.040;18.400;2022-12-08T17:40:30;5.10;64.90
74511;DHT22;62991;50.040;18.400;2022-12-08T17:43:31;5.10;64.80
74511;DHT22;62991;50.040;18.400;2022-12-08T17:46:32;5.10;64.70
74511;DHT22;62991;50.040;18.400;2022-12-08T17:49:33;5.10;64.70
74511;DHT22;62991;50.040;18.400;2022-12-08T17:52:34;5.10;64.70
74511;DHT22;62991;50.040;18.400;2022-12-08T17:55:35;5.20;64.60
74511;DHT22;62991;50.040;18.400;2022-12-08T17:58:36;5.20;64.60
74511;DHT22;62991;50.040;18.400;2022-12-08T18:01:37;5.30;64.40
74511;DHT22;62991;50.040;18.400;2022-12-08T18:04:38;5.20;64.40
74511;DHT22;62991;50.040;18.400;2022-12-08T18:07:38;5.20;64.50
74511;DHT22;62991;50.040;18.400;2022-12-08T18:10:39;5.30;64.50
74511;DHT22;62991;50.040;18.400;2022-12-08T18:13:41;5.30;64.40
74511;DHT22;62991;50.040;18.400;2022-12-08T18:16:44;5.30;64.50
74511;DHT22;62991;50.040;18.400;2022-12-08T18:19:44;5.30;64.40
74511;DHT22;62991;50.040;18.400;2022-12-08T18:22:45;5.40;64.40
74511;DHT22;62991;50.040;18.400;2022-12-08T18:25:46;5.40;64.30
74511;DHT22;62991;50.040;18.400;2022-12-08T18:28:46;5.50;64.20
74511;DHT22;62991;50.040;18.400;2022-12-08T18:31:48;5.50;64.30
74511;DHT22;62991;50.040;18.400;2022-12-08T18:34:49;5.40;64.30
74511;DHT22;62991;50.040;18.400;2022-12-08T18:37:50;5.40;64.30
74511;DHT22;62991;50.040;18.400;2022-12-08T18:40:50;5.40;64.40
74511;DHT22;62991;50.040;18.400;2022-12-08T18:43:52;5.40;64.40
74511;DHT22;62991;50.040;18.400;2022-12-08T18:46:54;5.40;64.40
74511;DHT22;62991;50.040;18.400;2022-12-08T18:49:55;5.40;64.40
74511;DHT22;62991;50.040;18.400;2022-12-08T18:52:55;5.40;64.40
74511;DHT22;62991;50.040;18.400;2022-12-08T18:55:56;5.40;64.50
74511;DHT22;62991;50.040;18.400;2022-12-08T18:58:59;5.40;64.40
74511;DHT22;62991;50.040;18.400;2022-12-08T19:02:00;5.40;64.40
74511;DHT22;62991;50.040;18.400;2022-12-08T19:05:01;5.40;64.30
74511;DHT22;62991;50.040;18.400;2022-12-08T19:08:02;5.50;64.40
74511;DHT22;62991;50.040;18.400;2022-12-08T19:11:03;5.40;64.40
74511;DHT22;62991;50.040;18.400;2022-12-08T19:14:03;5.40;64.40
74511;DHT22;62991;50.040;18.400;2022-12-08T19:17:04;5.40;64.40
74511;DHT22;62991;50.040;18.400;2022-12-08T19:20:05;5.40;64.40
74511;DHT22;62991;50.040;18.400;2022-12-08T19:23:06;5.40;64.40
74511;DHT22;62991;50.040;18.400;2022-12-08T19:26:07;5.40;64.40
74511;DHT22;62991;50.040;18.400;2022-12-08T19:29:08;5.40;64.40
74511;DHT22;62991;50.040;18.400;2022-12-08T19:32:09;5.40;64.40
74511;DHT22;62991;50.040;18.400;2022-12-08T19:35:10;5.40;64.40
74511;DHT22;62991;50.040;18.400;2022-12-08T19:38:11;5.40;64.40
74511;DHT22;62991;50.040;18.400;2022-12-08T19:41:12;5.40;64.40
74511;DHT22;62991;50.040;18.400;2022-12-08T19:44:31;5.40;64.40
74511;DHT22;62991;50.040;18.400;2022-12-08T19:47:50;5.40;64.40
74511;DHT22;62991;50.040;18.400;2022-12-08T19:50:51;5.50;64.30
74511;DHT22;62991;50.040;18.400;2022-12-08T19:53:52;5.50;64.30
74511;DHT22;62991;50.040;18.400;2022-12-08T19:56:52;5.60;64.30
74511;DHT22;62991;50.040;18.400;2022-12-08T19:59:53;5.60;64.20
74511;DHT22;62991;50.040;18.400;2022-12-08T20:02:54;5.60;64.20
74511;DHT22;62991;50.040;18.400;2022-12-08T20:05:54;5.60;64.20
74511;DHT22;62991;50.040;18.400;2022-12-08T20:08:55;5.60;64.20
74511;DHT22;62991;50.040;18.400;2022-12-08T20:11:56;5.60;64.10
74511;DHT22;62991;50.040;18.400;2022-12-08T20:14:56;5.60;64.10
74511;DHT22;62991;50.040;18.400;2022-12-08T20:17:57;5.60;64.10
74511;DHT22;62991;50.040;18.400;2022-12-08T20:20:58;5.60;64.20
74511;DHT22;62991;50.040;18.400;2022-12-08T20:23:58;5.60;64.20
74511;DHT22;62991;50.040;18.400;2022-12-08T20:26:59;5.60;64.10
74511;DHT22;62991;50.040;18.400;2022-12-08T20:30:00;5.70;64.10
74511;DHT22;62991;50.040;18.400;2022-12-08T20:33:00;5.70;64.10
74511;DHT22;62991;50.040;18.400;2022-12-08T20:36:04;5.70;64.10
74511;DHT22;62991;50.040;18.400;2022-12-08T20:39:12;5.80;64.00
74511;DHT22;62991;50.040;18.400;2022-12-08T20:42:13;5.80;63.90